Time;durP1;ratioP1;P1;durP2;ratioP2;P2;SDS_P1;SDS_P2;PMS_P1;PMS_P2;Temp;Humidity;BMP_temperature;BMP_pressure;BME280_temperature;BME280_humidity;BME280_pressure;Samples;Min_cycle;Max_cycle;Signal;HPM_P1;HPM_P2
2023/11/25 00:00:16;;;;;;;9.77;1.40;;;;;;;12.50;46.79;101026.06;5093957;28;20144;-57
2023/11/25 00:02:42;;;;;;;4.75;1.23;;;;;;;12.52;47.38;101018.72;5076035;28;20384;-57
2023/11/25 00:05:07;;;;;;;5.70;1.00;;;;;;;12.51;46.33;101025.06;5059210;28;20031;-57
2023/11/25 00:07:33;;;;;;;2.42;0.82;;;;;;;12.51;47.83;101023.25;5093629;28;20028;-57
2023/11/25 00:09:59;;;;;;;6.90;1.50;;;;;;;12.51;47.58;101030.44;5075467;28;20028;-57
2023/11/25 00:12:24;;;;;;;5.72;1.38;;;;;;;12.50;46.58;101026.06;5075216;28;20498;-57
2023/11/25 00:14:50;;;;;;;15.52;1.48;;;;;;;12.49;46.79;101029.75;5093834;28;20036;-57
2023/11/25 00:17:17;;;;;;;10.60;2.78;;;;;;;12.48;46.24;101034.25;5093944;28;20494;-57
2023/11/25 00:19:42;;;;;;;4.10;1.00;;;;;;;12.49;47.24;101040.50;5075223;28;20574;-57
2023/11/25 00:22:07;;;;;;;6.78;0.98;;;;;;;12.46;46.23;101036.25;5093130;28;20036;-57
2023/11/25 00:24:33;;;;;;;2.65;0.70;;;;;;;12.45;47.93;101029.16;5077653;28;20032;-56
2023/11/25 00:26:59;;;;;;;9.02;1.83;;;;;;;12.43;47.51;101046.41;5079406;28;20052;-57
2023/11/25 00:29:25;;;;;;;9.52;1.27;;;;;;;12.42;47.12;101047.41;5096643;28;20111;-56
2023/11/25 00:31:54;;;;;;;4.57;1.08;;;;;;;12.40;46.80;101041.28;5096808;28;20063;-56
2023/11/25 00:34:21;;;;;;;15.50;2.15;;;;;;;12.39;46.81;101053.91;5075899;28;20035;-57
2023/11/25 00:36:47;;;;;;;9.60;1.58;;;;;;;12.36;46.49;101045.25;5074793;28;20040;-57
2023/11/25 00:39:15;;;;;;;1.70;0.75;;;;;;;12.37;47.05;101044.28;5074895;28;20093;-56
2023/11/25 00:41:40;;;;;;;4.65;1.05;;;;;;;12.36;47.16;101056.00;5091801;28;20044;-57
2023/11/25 00:44:07;;;;;;;10.57;1.50;;;;;;;12.34;47.21;101042.69;5078001;28;20035;-57
2023/11/25 00:46:33;;;;;;;3.80;0.70;;;;;;;12.27;46.74;101037.03;5097128;28;20040;-57
2023/11/25 00:48:58;;;;;;;3.83;1.10;;;;;;;12.30;47.88;101030.53;5077854;28;20039;-57
2023/11/25 00:51:24;;;;;;;12.45;1.40;;;;;;;12.30;47.63;101038.59;5075142;28;20028;-57
2023/11/25 00:53:50;;;;;;;6.93;1.30;;;;;;;12.28;46.65;101038.69;5092721;28;20044;-57
2023/11/25 00:56:15;;;;;;;5.97;1.30;;;;;;;12.31;47.90;101042.94;5092967;28;20032;-57
2023/11/25 00:58:41;;;;;;;5.65;0.90;;;;;;;12.34;47.42;101048.06;5092621;28;20524;-57
2023/11/25 01:01:07;;;;;;;8.23;1.42;;;;;;;12.34;47.80;101048.06;5074234;28;20158;-57
2023/11/25 01:03:33;;;;;;;6.07;1.13;;;;;;;12.36;47.43;101050.63;5074761;28;20115;-57
2023/11/25 01:05:59;;;;;;;10.55;0.98;;;;;;;12.34;47.88;101056.13;5074742;28;20108;-57
2023/11/25 01:08:28;;;;;;;5.07;1.10;;;;;;;12.36;47.92;101054.16;5089604;28;20043;-57
2023/11/25 01:10:53;;;;;;;7.68;1.42;;;;;;;12.37;47.48;101055.84;5092534;28;20024;-56
2023/11/25 01:13:19;;;;;;;2.38;0.75;;;;;;;12.37;47.57;101052.34;5074589;28;20024;-56
2023/11/25 01:15:44;;;;;;;8.52;1.08;;;;;;;12.38;46.52;101059.41;5076280;28;20038;-57
2023/11/25 01:18:10;;;;;;;11.35;1.35;;;;;;;12.36;46.77;101058.69;5093150;28;20047;-58
2023/11/25 01:20:36;;;;;;;3.75;0.90;;;;;;;12.37;47.24;101073.84;5075007;28;20032;-57
2023/11/25 01:23:02;;;;;;;10.52;1.55;;;;;;;12.36;47.42;101072.13;5075158;28;20032;-57
2023/11/25 01:25:28;;;;;;;5.57;1.02;;;;;;;12.32;46.43;101076.03;5075215;28;20052;-56
2023/11/25 01:27:58;;;;;;;6.50;0.95;;;;;;;12.34;46.36;101090.22;5075110;28;20530;-57
2023/11/25 01:30:24;;;;;;;5.03;1.05;;;;;;;12.30;47.41;101086.06;5091184;28;20158;-57
2023/11/25 01:32:50;;;;;;;14.35;1.45;;;;;;;12.27;46.73;101087.19;5071822;28;20465;-57
2023/11/25 01:35:15;;;;;;;9.73;1.23;;;;;;;12.26;47.74;101099.78;5098241;28;20510;-57
2023/11/25 01:37:40;;;;;;;16.23;2.35;;;;;;;12.25;47.49;101103.44;5097376;28;20039;-57
2023/11/25 01:40:10;;;;;;;5.80;1.38;;;;;;;12.19;46.84;101098.63;5082140;28;20056;-58
2023/11/25 01:42:36;;;;;;;8.10;1.95;;;;;;;12.19;46.83;101098.63;5059202;28;20040;-57
2023/11/25 01:45:02;;;;;;;5.13;1.15;;;;;;;12.18;46.85;101099.59;5058874;28;20078;-57
2023/11/25 01:47:27;;;;;;;8.40;0.85;;;;;;;12.14;47.26;101095.47;5059096;28;20412;-57
2023/11/25 01:49:53;;;;;;;5.60;1.10;;;;;;;12.15;47.63;101101.69;5060183;28;20037;-56
2023/11/25 01:52:18;;;;;;;5.97;1.00;;;;;;;12.13;46.63;101095.59;5078170;28;20041;-56
2023/11/25 01:54:44;;;;;;;5.30;0.98;;;;;;;12.09;47.01;101097.69;5077601;28;20124;-58
2023/11/25 01:57:10;;;;;;;4.20;0.82;;;;;;;12.08;46.70;101095.16;5060036;28;20458;-57
2023/11/25 01:59:35;;;;;;;7.55;1.20;;;;;;;12.07;47.54;101099.66;5060131;28;20051;-57
2023/11/25 02:02:03;;;;;;;7.85;1.73;;;;;;;12.01;46.88;101099.34;5059540;28;20599;-57
2023/11/25 02:04:28;;;;;;;7.85;1.23;;;;;;;12.00;46.85;101098.50;5077613;28;20036;-57
2023/11/25 02:06:53;;;;;;;11.57;1.02;;;;;;;11.93;46.35;101081.22;5077017;28;20044;-57
2023/11/25 02:09:19;;;;;;;7.60;1.35;;;;;;;11.96;47.10;101093.50;5077394;28;20036;-57
2023/11/25 02:12:01;;;;;;;3.85;0.93;;;;;;;11.98;47.61;101099.59;5077342;28;20039;-56
2023/11/25 02:14:27;;;;;;;6.20;1.03;;;;;;;11.97;46.58;101098.78;5059558;28;20033;-57
2023/11/25 02:16:53;;;;;;;7.57;0.90;;;;;;;11.95;47.11;101106.06;5043359;28;20036;-58
2023/11/25 02:19:21;;;;;;;3.03;0.95;;;;;;;11.94;46.95;101104.41;5058550;28;20121;-57
2023/11/25 02:21:46;;;;;;;3.53;0.63;;;;;;;11.94;47.09;101115.13;5058114;28;20039;-57
2023/11/25 02:24:12;;;;;;;6.28;0.75;;;;;;;11.92;47.51;101105.50;5075962;28;20036;-58
2023/11/25 02:26:38;;;;;;;3.50;1.10;;;;;;;11.91;47.14;101101.97;5056788;28;20127;-58
2023/11/25 02:29:04;;;;;;;6.22;1.15;;;;;;;11.92;47.11;101092.91;5075753;28;20033;-57
2023/11/25 02:31:30;;;;;;;5.90;1.67;;;;;;;11.91;46.93;101088.56;5058056;28;20444;-58
2023/11/25 02:33:56;;;;;;;4.53;1.45;;;;;;;11.90;47.42;101097.56;5057867;28;20166;-57
2023/11/25 02:36:23;;;;;;;8.32;1.40;;;;;;;11.87;46.58;101092.47;5057959;28;20064;-58
2023/11/25 02:38:49;;;;;;;1.88;0.75;;;;;;;11.87;47.15;101107.72;5041846;28;20116;-57
2023/11/25 02:41:14;;;;;;;7.25;1.10;;;;;;;11.85;47.29;101098.94;5075513;28;20124;-58
2023/11/25 02:43:40;;;;;;;7.72;1.00;;;;;;;11.83;47.36;101104.47;5056151;28;20577;-57
2023/11/25 02:46:05;;;;;;;3.95;0.88;;;;;;;11.83;47.41;101107.16;5057524;28;20509;-57
2023/11/25 02:48:30;;;;;;;7.95;0.85;;;;;;;11.82;47.43;101110.81;5075378;28;20071;-57
2023/11/25 02:50:56;;;;;;;8.02;1.00;;;;;;;11.83;46.33;101112.50;5057510;28;20028;-58
2023/11/25 02:53:21;;;;;;;9.55;1.30;;;;;;;11.82;47.19;101105.44;5075217;28;20127;-57
2023/11/25 02:55:47;;;;;;;2.08;0.63;;;;;;;11.83;47.28;101108.97;5075192;28;20047;-62
2023/11/25 02:58:12;;;;;;;8.25;1.38;;;;;;;11.80;47.62;101103.88;5040608;28;20119;-58
2023/11/25 03:00:40;;;;;;;7.05;1.17;;;;;;;11.84;47.14;101108.81;5074958;28;20052;-59
2023/11/25 03:03:22;;;;;;;4.47;1.15;;;;;;;11.87;46.82;101113.09;5057689;28;20032;-57
2023/11/25 03:05:52;;;;;;;5.03;1.17;;;;;;;11.84;47.07;101108.81;5058456;28;20044;-57
2023/11/25 03:08:18;;;;;;;7.50;0.98;;;;;;;11.87;46.81;101126.50;5057747;28;20491;-57
2023/11/25 03:10:46;;;;;;;5.07;1.48;;;;;;;11.88;46.97;101115.66;5057056;28;20114;-57
2023/11/25 03:13:12;;;;;;;2.97;0.82;;;;;;;11.89;46.89;101116.50;5057502;28;20079;-57
2023/11/25 03:15:38;;;;;;;2.30;1.10;;;;;;;11.89;47.54;101114.66;5057313;28;20056;-57
2023/11/25 03:18:05;;;;;;;4.50;1.15;;;;;;;11.91;47.23;101120.75;5075077;28;20480;-57
2023/11/25 03:20:34;;;;;;;6.95;1.20;;;;;;;11.91;47.07;101115.41;5057112;28;20039;-57
2023/11/25 03:23:01;;;;;;;3.35;0.77;;;;;;;11.96;47.86;101110.47;5074914;28;20047;-57
2023/11/25 03:25:27;;;;;;;2.70;1.08;;;;;;;11.97;47.76;101120.25;5056813;28;20442;-57
2023/11/25 03:27:53;;;;;;;6.95;1.15;;;;;;;11.97;47.58;101114.88;5074847;28;20090;-57
2023/11/25 03:30:19;;;;;;;8.35;1.20;;;;;;;11.99;47.40;101120.97;5056467;28;20033;-58
2023/11/25 03:32:45;;;;;;;4.85;1.25;;;;;;;12.00;47.26;101121.81;5056641;28;20039;-57
2023/11/25 03:35:10;;;;;;;7.15;1.17;;;;;;;11.98;47.60;101119.25;5080330;28;20028;-57
2023/11/25 03:37:35;;;;;;;9.82;1.13;;;;;;;12.02;47.03;101123.38;5094666;28;20036;-58
2023/11/25 03:40:01;;;;;;;9.30;1.02;;;;;;;12.07;46.65;101121.16;5076842;28;20071;-57
2023/11/25 03:42:27;;;;;;;7.95;1.00;;;;;;;12.09;48.04;101118.31;5094302;28;20059;-57
2023/11/25 03:44:52;;;;;;;7.38;2.92;;;;;;;12.11;47.04;101116.38;5076625;28;20543;-57
2023/11/25 03:47:18;;;;;;;7.13;1.60;;;;;;;12.15;46.81;101120.47;5094314;28;20398;-57
2023/11/25 03:49:44;;;;;;;11.65;1.70;;;;;;;12.17;47.13;101124.72;5076757;28;20085;-57
2023/11/25 03:52:11;;;;;;;14.85;1.77;;;;;;;12.18;47.96;101129.13;5094589;28;20403;-57
2023/11/25 03:54:37;;;;;;;5.95;1.27;;;;;;;12.21;47.73;101123.50;5093832;28;20111;-57
2023/11/25 03:57:03;;;;;;;9.65;1.35;;;;;;;12.21;46.80;101112.75;5076347;28;20044;-57
2023/11/25 03:59:28;;;;;;;8.38;1.58;;;;;;;12.22;47.15;101119.84;5076245;28;20078;-57
2023/11/25 04:01:54;;;;;;;10.88;1.40;;;;;;;12.20;47.85;101121.78;5094275;28;20101;-57
2023/11/25 04:04:19;;;;;;;4.93;1.25;;;;;;;12.20;47.14;101120.94;5094036;28;20114;-57
2023/11/25 04:06:46;;;;;;;6.88;1.00;;;;;;;12.17;47.95;101119.34;5093829;28;20042;-58
2023/11/25 04:09:12;;;;;;;7.57;1.83;;;;;;;12.14;47.10;101122.31;5076122;28;20036;-57
2023/11/25 04:11:41;;;;;;;4.78;1.48;;;;;;;12.14;46.95;101121.47;5093931;28;20034;-57
2023/11/25 04:14:07;;;;;;;9.43;1.33;;;;;;;12.13;47.88;101115.25;5093968;28;20028;-58
2023/11/25 04:16:32;;;;;;;4.57;1.55;;;;;;;12.08;47.96;101117.50;5075839;28;20109;-58
2023/11/25 04:18:59;;;;;;;4.90;0.73;;;;;;;12.04;47.32;101110.66;5075538;28;20040;-57
2023/11/25 04:21:25;;;;;;;13.05;1.65;;;;;;;12.03;47.26;101124.25;5093797;28;20040;-58
2023/11/25 04:23:51;;;;;;;6.35;1.00;;;;;;;12.00;47.02;101111.94;5075814;28;20105;-58
2023/11/25 04:26:19;;;;;;;3.42;0.98;;;;;;;11.95;47.50;101116.81;5076059;28;20052;-62
2023/11/25 04:28:45;;;;;;;5.68;1.20;;;;;;;11.95;47.11;101116.00;5093661;28;20050;-62
2023/11/25 04:31:10;;;;;;;7.75;1.00;;;;;;;11.94;46.90;101120.50;5093823;28;20032;-62
2023/11/25 04:33:35;;;;;;;3.85;0.65;;;;;;;11.87;47.78;101119.31;5093513;28;20517;-62
2023/11/25 04:36:01;;;;;;;3.42;1.30;;;;;;;11.87;47.10;101124.69;5075460;28;20068;-62
2023/11/25 04:38:27;;;;;;;4.40;1.10;;;;;;;11.84;47.82;101130.31;5075608;28;20403;-62
2023/11/25 04:40:52;;;;;;;3.80;1.02;;;;;;;11.84;47.80;101135.66;5075255;28;20085;-62
2023/11/25 04:43:19;;;;;;;5.15;0.93;;;;;;;11.82;46.80;101126.91;5093477;28;20042;-62
2023/11/25 04:45:44;;;;;;;5.53;1.00;;;;;;;11.83;46.96;101127.75;5093425;28;20406;-62
2023/11/25 04:48:09;;;;;;;4.90;1.27;;;;;;;11.82;47.70;101126.03;5075255;28;20112;-62
2023/11/25 04:50:35;;;;;;;2.92;1.05;;;;;;;11.81;46.84;101119.00;5093228;28;20470;-62
2023/11/25 04:53:00;;;;;;;14.20;1.55;;;;;;;11.77;46.65;101107.66;5075148;28;20055;-62
2023/11/25 04:55:27;;;;;;;11.13;1.75;;;;;;;11.74;46.83;101102.56;5075301;28;20040;-62
2023/11/25 04:57:53;;;;;;;8.32;1.17;;;;;;;11.71;46.86;101108.19;5075679;28;20047;-62
2023/11/25 05:00:19;;;;;;;9.45;1.13;;;;;;;11.71;47.32;101097.44;5093318;28;20036;-62
2023/11/25 05:02:45;;;;;;;6.35;0.85;;;;;;;11.71;46.67;101107.31;5093057;28;20047;-62
2023/11/25 05:05:11;;;;;;;3.20;1.05;;;;;;;11.69;46.58;101110.16;5092436;28;20035;-62
2023/11/25 05:07:36;;;;;;;13.57;2.13;;;;;;;11.67;47.36;101101.31;5074862;28;20032;-62
2023/11/25 05:10:06;;;;;;;5.97;1.02;;;;;;;11.67;47.30;101101.31;5075133;28;20118;-62
2023/11/25 05:12:32;;;;;;;9.30;0.90;;;;;;;11.67;46.59;101101.31;5075202;28;20047;-62
2023/11/25 05:14:57;;;;;;;7.88;0.95;;;;;;;11.66;47.29;101099.63;5092972;28;20036;-63
2023/11/25 05:17:23;;;;;;;3.45;1.02;;;;;;;11.65;46.55;101096.09;5093741;28;20404;-62
2023/11/25 05:19:49;;;;;;;6.40;0.88;;;;;;;11.65;47.30;101095.25;5059345;28;20036;-63
2023/11/25 05:22:14;;;;;;;7.70;1.27;;;;;;;11.67;47.52;101104.84;5094552;28;20568;-62
2023/11/25 05:24:40;;;;;;;7.72;1.50;;;;;;;11.69;47.13;101115.50;5075773;28;20062;-63
2023/11/25 05:27:05;;;;;;;10.32;1.65;;;;;;;11.69;47.09;101104.78;5092835;28;20054;-62
2023/11/25 05:29:31;;;;;;;8.25;1.60;;;;;;;11.71;46.91;101107.31;5058198;28;20036;-63
2023/11/25 05:31:57;;;;;;;11.27;1.60;;;;;;;11.72;47.84;101109.88;5074726;28;20024;-63
2023/11/25 05:34:24;;;;;;;7.97;1.10;;;;;;;11.67;47.27;101098.63;5093041;28;20517;-62
2023/11/25 05:36:49;;;;;;;3.50;1.05;;;;;;;11.74;47.42;101104.38;5075192;28;20036;-57
2023/11/25 05:39:14;;;;;;;4.13;0.98;;;;;;;11.75;46.56;101108.78;5092848;28;20043;-57
2023/11/25 05:41:40;;;;;;;11.73;1.60;;;;;;;11.73;47.02;101095.47;5074585;28;20481;-57
2023/11/25 05:44:07;;;;;;;3.58;2.00;;;;;;;11.75;47.83;101098.03;5074587;28;20501;-57
2023/11/25 05:46:33;;;;;;;7.57;1.00;;;;;;;11.74;47.01;101097.19;5092805;28;20039;-57
2023/11/25 05:48:59;;;;;;;8.93;1.25;;;;;;;11.77;47.52;101102.28;5074758;28;20051;-58
2023/11/25 05:51:32;;;;;;;5.72;1.38;;;;;;;11.76;48.09;101100.59;5074702;28;20025;-57
2023/11/25 05:53:58;;;;;;;4.85;1.05;;;;;;;11.78;47.12;101097.78;5074435;28;20416;-58
2023/11/25 05:56:26;;;;;;;8.60;1.17;;;;;;;11.76;47.83;101084.47;5092556;28;20032;-58
2023/11/25 05:58:55;;;;;;;10.07;1.27;;;;;;;11.78;47.99;101098.59;5092810;28;20063;-57
2023/11/25 06:01:21;;;;;;;5.75;1.20;;;;;;;11.79;47.04;101094.97;5092906;28;20495;-58
2023/11/25 06:03:47;;;;;;;5.32;1.67;;;;;;;11.81;47.75;101098.34;5075118;28;20047;-57
2023/11/25 06:06:12;;;;;;;7.70;3.08;;;;;;;11.82;46.92;101085.78;5092765;28;20036;-57
2023/11/25 06:08:38;;;;;;;6.03;1.05;;;;;;;11.83;47.40;101112.50;5074913;28;20036;-58
2023/11/25 06:11:03;;;;;;;6.80;0.88;;;;;;;11.85;47.48;101120.41;5057781;28;20028;-58
2023/11/25 06:13:29;;;;;;;7.35;1.90;;;;;;;11.89;47.87;101138.81;5092476;28;20384;-58
2023/11/25 06:15:56;;;;;;;4.47;1.15;;;;;;;11.91;47.12;101152.13;5092235;28;20060;-58
2023/11/25 06:18:24;;;;;;;9.40;2.20;;;;;;;11.93;47.02;101159.06;5095599;28;20055;-57
2023/11/25 06:20:50;;;;;;;6.28;1.00;;;;;;;11.90;47.51;101150.41;5096054;28;20055;-57
2023/11/25 06:23:15;;;;;;;4.30;1.05;;;;;;;11.90;48.21;101135.16;5078200;28;20488;-58
2023/11/25 06:25:42;;;;;;;5.63;1.10;;;;;;;11.85;48.21;101123.97;5078042;28;20491;-58
2023/11/25 06:28:09;;;;;;;8.68;1.00;;;;;;;11.79;47.85;101129.84;5096134;28;20068;-57
2023/11/25 06:30:34;;;;;;;8.50;1.45;;;;;;;11.76;48.88;101140.84;5078493;28;20078;-57
2023/11/25 06:33:00;;;;;;;9.50;1.35;;;;;;;11.72;48.60;101126.00;5078971;28;20031;-58
2023/11/25 06:35:26;;;;;;;7.22;1.25;;;;;;;11.71;47.84;101116.22;5080426;28;20032;-57
2023/11/25 06:37:51;;;;;;;12.55;2.13;;;;;;;11.69;48.00;101115.50;5080011;28;20549;-57
2023/11/25 06:40:17;;;;;;;8.38;1.90;;;;;;;11.71;48.81;101118.06;5099038;28;20036;-57
2023/11/25 06:42:42;;;;;;;6.03;1.27;;;;;;;11.68;48.53;101114.63;5081447;28;20059;-58
2023/11/25 06:45:08;;;;;;;7.43;2.03;;;;;;;11.70;49.10;101117.19;5098769;28;20032;-57
2023/11/25 06:47:34;;;;;;;7.68;1.20;;;;;;;11.71;48.59;101120.72;5098133;28;20039;-58
2023/11/25 06:50:00;;;;;;;8.05;1.75;;;;;;;11.72;48.54;101112.56;5095833;28;20039;-58
2023/11/25 06:52:26;;;;;;;15.32;1.67;;;;;;;11.72;48.61;101125.13;5077697;28;20400;-58
2023/11/25 06:54:51;;;;;;;7.35;1.90;;;;;;;11.70;48.10;101117.19;5060563;28;20054;-58
2023/11/25 06:57:17;;;;;;;6.20;1.33;;;;;;;11.72;48.93;101109.03;5077393;28;20062;-58
2023/11/25 06:59:45;;;;;;;6.88;1.05;;;;;;;11.76;48.12;101108.63;5095422;28;20068;-58
2023/11/25 07:02:12;;;;;;;6.38;1.30;;;;;;;11.76;48.10;101107.78;5095326;28;20032;-57
2023/11/25 07:04:37;;;;;;;8.10;1.05;;;;;;;11.82;49.18;101107.25;5095341;28;20028;-58
2023/11/25 07:07:03;;;;;;;3.50;0.90;;;;;;;11.85;48.66;101098.94;5077169;28;20040;-58
2023/11/25 07:09:30;;;;;;;7.97;0.90;;;;;;;11.86;49.17;101093.47;5095515;28;20036;-58
2023/11/25 07:11:55;;;;;;;10.00;1.77;;;;;;;11.89;48.98;101081.63;5095166;28;20024;-58
2023/11/25 07:14:21;;;;;;;5.45;1.15;;;;;;;11.91;47.90;101083.19;5095077;28;20106;-58
2023/11/25 07:16:47;;;;;;;6.72;1.52;;;;;;;11.92;49.01;101087.53;5075469;28;20032;-61
2023/11/25 07:19:13;;;;;;;6.38;1.00;;;;;;;11.91;48.20;101080.50;5076767;28;20119;-59
2023/11/25 07:21:38;;;;;;;4.95;0.98;;;;;;;11.94;48.73;101088.28;5094842;28;20107;-58
2023/11/25 07:24:04;;;;;;;9.98;1.27;;;;;;;11.97;48.95;101087.19;5094855;28;20511;-58
2023/11/25 07:26:30;;;;;;;7.43;0.93;;;;;;;11.98;48.03;101081.66;5076687;28;20032;-57
2023/11/25 07:28:56;;;;;;;3.75;1.05;;;;;;;12.00;48.26;101071.66;5094067;28;20093;-58
2023/11/25 07:31:22;;;;;;;6.38;0.90;;;;;;;12.04;48.17;101078.44;5076667;28;20103;-58
2023/11/25 07:33:47;;;;;;;3.67;1.23;;;;;;;12.05;48.08;101076.63;5076600;28;20058;-58
2023/11/25 07:36:13;;;;;;;2.63;1.00;;;;;;;12.04;47.97;101089.19;5094611;28;20032;-58
2023/11/25 07:38:38;;;;;;;10.35;1.23;;;;;;;12.09;48.72;101104.88;5094639;28;20028;-57
2023/11/25 07:41:04;;;;;;;15.73;1.70;;;;;;;12.05;48.24;101101.66;5076407;28;20039;-57
2023/11/25 07:43:31;;;;;;;3.42;0.88;;;;;;;12.11;48.72;101117.22;5076764;28;20077;-58
2023/11/25 07:45:56;;;;;;;8.80;1.58;;;;;;;12.10;48.91;101115.50;5094646;28;20028;-57
2023/11/25 07:48:22;;;;;;;8.48;1.60;;;;;;;12.15;47.86;101102.53;5076189;28;20123;-58
2023/11/25 07:50:47;;;;;;;9.77;1.38;;;;;;;12.17;48.47;101094.38;5094492;28;20525;-58
2023/11/25 07:53:13;;;;;;;10.23;1.67;;;;;;;12.20;48.31;101094.94;5075812;28;20098;-58
2023/11/25 07:55:38;;;;;;;8.15;1.58;;;;;;;12.23;48.78;101088.44;5094371;28;20051;-58
2023/11/25 07:58:05;;;;;;;8.70;1.20;;;;;;;12.27;48.79;101085.38;5094526;28;20089;-58
2023/11/25 08:00:31;;;;;;;7.13;1.23;;;;;;;12.34;47.82;101088.34;5076429;28;20023;-58
2023/11/25 08:02:58;;;;;;;6.65;1.45;;;;;;;12.36;47.57;101089.09;5094270;28;20109;-57
2023/11/25 08:05:24;;;;;;;5.90;1.58;;;;;;;12.43;49.06;101084.00;5094017;28;20032;-58
2023/11/25 08:07:53;;;;;;;5.10;1.42;;;;;;;12.48;48.97;101077.25;5075933;28;20081;-58
2023/11/25 08:10:20;;;;;;;8.43;1.35;;;;;;;12.56;48.38;101080.09;5076255;28;20116;-58
2023/11/25 08:12:45;;;;;;;12.40;1.90;;;;;;;12.58;48.53;101072.78;5059240;28;20390;-57
2023/11/25 08:15:14;;;;;;;15.63;1.35;;;;;;;12.60;48.40;101061.88;5075886;28;20034;-57
2023/11/25 08:17:41;;;;;;;7.03;1.33;;;;;;;12.60;47.98;101076.16;5094406;28;20032;-57
2023/11/25 08:20:08;;;;;;;10.10;1.67;;;;;;;12.62;49.00;101073.34;5076279;28;20036;-58
2023/11/25 08:22:34;;;;;;;6.72;1.30;;;;;;;12.65;47.89;101067.69;5059288;28;20040;-58
2023/11/25 08:25:05;;;;;;;8.15;1.90;;;;;;;12.66;47.66;101069.41;5075821;28;20101;-58
2023/11/25 08:27:30;;;;;;;9.25;3.72;;;;;;;12.67;48.43;101065.75;5094072;28;20032;-58
2023/11/25 08:29:55;;;;;;;16.33;2.42;;;;;;;12.66;48.11;101064.88;5075732;28;20442;-58
2023/11/25 08:32:21;;;;;;;10.48;1.92;;;;;;;12.73;48.76;101070.56;5075680;28;20038;-58
2023/11/25 08:34:47;;;;;;;15.57;2.05;;;;;;;12.77;48.77;101069.28;5094164;28;20032;-58
2023/11/25 08:37:12;;;;;;;10.50;2.45;;;;;;;12.79;48.04;101067.31;5058827;28;20028;-58
2023/11/25 08:39:39;;;;;;;9.43;1.90;;;;;;;12.81;48.61;101070.72;5093649;28;20047;-58
2023/11/25 08:42:05;;;;;;;7.63;1.85;;;;;;;12.80;47.90;101077.09;5093581;28;20036;-58
2023/11/25 08:44:30;;;;;;;7.97;1.63;;;;;;;12.73;47.84;101078.63;5093731;28;20480;-58
2023/11/25 08:46:58;;;;;;;4.05;0.82;;;;;;;12.71;48.48;101077.91;5075298;28;20040;-58
2023/11/25 08:49:24;;;;;;;7.15;1.30;;;;;;;12.70;48.17;101077.03;5093295;28;20515;-58
2023/11/25 08:51:51;;;;;;;6.15;1.10;;;;;;;12.73;48.59;101075.94;5093446;28;20032;-58
2023/11/25 08:54:20;;;;;;;5.65;0.88;;;;;;;12.72;48.37;101074.22;5093076;28;20499;-58
2023/11/25 08:56:46;;;;;;;9.45;1.65;;;;;;;12.76;49.36;101083.72;5075075;28;20051;-58
2023/11/25 08:59:20;;;;;;;4.28;0.88;;;;;;;12.77;47.87;101082.72;5075189;28;20039;-58
2023/11/25 09:01:47;;;;;;;6.85;0.70;;;;;;;12.80;49.26;101087.84;5075641;28;20406;-58
2023/11/25 09:04:17;;;;;;;6.45;1.33;;;;;;;12.86;48.54;101076.53;5075578;28;20036;-58
2023/11/25 09:06:45;;;;;;;3.65;1.00;;;;;;;12.94;47.82;101074.00;5075989;28;20098;-58
2023/11/25 09:09:12;;;;;;;2.38;0.75;;;;;;;13.05;48.37;101075.72;5075444;28;20483;-58
2023/11/25 09:11:38;;;;;;;2.72;0.95;;;;;;;13.12;49.24;101068.84;5075337;28;20050;-58
2023/11/25 09:14:07;;;;;;;5.07;2.17;;;;;;;13.15;48.65;101069.41;5058096;28;20491;-58
2023/11/25 09:16:33;;;;;;;4.45;1.13;;;;;;;13.19;48.77;101073.50;5093078;28;20040;-58
2023/11/25 09:19:00;;;;;;;2.50;0.77;;;;;;;13.25;49.50;101082.88;5092889;28;20119;-58
2023/11/25 09:21:26;;;;;;;9.38;1.10;;;;;;;13.28;48.87;101080.75;5092814;28;20035;-58
2023/11/25 09:23:51;;;;;;;7.53;1.20;;;;;;;13.27;48.44;101081.72;5074994;28;20036;-58
2023/11/25 09:26:17;;;;;;;6.15;1.15;;;;;;;13.34;48.99;101082.84;5092879;28;20028;-58
2023/11/25 09:28:42;;;;;;;4.80;1.00;;;;;;;13.46;49.39;101080.03;5074859;28;20032;-58
2023/11/25 09:31:07;;;;;;;4.20;1.10;;;;;;;13.52;48.28;101079.47;5074801;28;20036;-58
2023/11/25 09:33:33;;;;;;;2.35;0.65;;;;;;;13.61;48.39;101084.00;5093038;28;20127;-58
2023/11/25 09:35:59;;;;;;;8.23;1.25;;;;;;;13.69;48.94;101066.16;5074575;28;20040;-58
2023/11/25 09:38:24;;;;;;;7.97;0.82;;;;;;;13.87;47.50;101080.56;5092733;28;20682;-58
2023/11/25 09:40:50;;;;;;;3.28;0.80;;;;;;;14.10;47.94;101081.09;5092613;28;20028;-58
2023/11/25 09:43:17;;;;;;;2.25;0.82;;;;;;;14.61;47.95;101090.59;5092803;28;20032;-58
2023/11/25 09:45:44;;;;;;;10.65;1.90;;;;;;;15.17;47.23;101077.78;5092653;28;20040;-61
2023/11/25 09:48:10;;;;;;;2.63;1.40;;;;;;;15.69;46.70;101076.09;5092746;28;20036;-59
2023/11/25 09:50:36;;;;;;;2.30;0.82;;;;;;;16.28;46.65;101067.25;5074654;28;20043;-59
2023/11/25 09:53:09;;;;;;;3.47;1.63;;;;;;;16.84;45.69;101062.16;5061572;28;20056;-59
2023/11/25 09:55:35;;;;;;;6.95;1.40;;;;;;;17.08;45.18;101053.25;5059177;28;20059;-59
2023/11/25 09:58:05;;;;;;;6.55;0.85;;;;;;;17.68;44.73;101061.13;5078017;28;20033;-59
2023/11/25 10:00:32;;;;;;;5.28;0.57;;;;;;;17.86;44.92;101043.69;5076814;28;20411;-59
2023/11/25 10:03:00;;;;;;;2.13;0.57;;;;;;;17.94;45.04;101045.53;5058614;28;20040;-58
2023/11/25 10:05:26;;;;;;;3.38;0.50;;;;;;;17.74;45.12;101057.75;5058528;28;20037;-59
2023/11/25 10:07:51;;;;;;;2.10;0.82;;;;;;;17.43;46.03;101052.13;5058150;28;20500;-59
2023/11/25 10:10:23;;;;;;;3.00;1.23;;;;;;;17.29;46.42;101056.34;5075960;28;20043;-59
2023/11/25 10:12:49;;;;;;;4.25;1.25;;;;;;;17.16;45.49;101050.56;5084601;28;20131;-59
2023/11/25 10:15:14;;;;;;;6.72;0.88;;;;;;;17.37;45.02;101048.22;5041838;28;20024;-59
2023/11/25 10:17:42;;;;;;;5.68;1.58;;;;;;;17.93;44.10;101047.41;5057858;28;20535;-59
2023/11/25 10:20:26;;;;;;;4.18;1.02;;;;;;;18.29;43.89;101042.41;5058091;28;20089;-59
2023/11/25 10:22:53;;;;;;;6.95;1.73;;;;;;;18.58;43.71;101036.41;5075297;28;20045;-62
2023/11/25 10:25:20;;;;;;;6.05;1.20;;;;;;;18.79;43.56;101039.38;5058050;28;20042;-59
2023/11/25 10:27:46;;;;;;;4.78;1.50;;;;;;;19.02;43.72;101048.41;5058028;28;20050;-59
2023/11/25 10:30:14;;;;;;;4.90;1.13;;;;;;;19.24;42.79;101040.47;5075945;28;20025;-59
2023/11/25 10:32:41;;;;;;;9.77;1.45;;;;;;;19.56;43.12;101041.13;5075934;28;20020;-59
2023/11/25 10:35:08;;;;;;;6.20;1.13;;;;;;;19.48;43.03;101043.06;5058491;28;20023;-59
2023/11/25 10:37:34;;;;;;;3.65;1.13;;;;;;;19.16;43.72;101034.06;5041664;28;20027;-59
2023/11/25 10:39:59;;;;;;;6.25;1.35;;;;;;;19.15;43.59;101034.25;5041783;28;20024;-59
2023/11/25 10:42:26;;;;;;;6.78;1.15;;;;;;;19.29;42.91;101032.63;5076399;28;20024;-59
2023/11/25 10:44:52;;;;;;;2.10;0.90;;;;;;;19.26;43.64;101039.28;5079257;28;20016;-60
2023/11/25 10:47:33;;;;;;;4.57;1.00;;;;;;;19.31;42.67;101023.28;5043488;28;20036;-59
2023/11/25 10:50:03;;;;;;;3.83;0.90;;;;;;;19.50;43.21;101033.69;5077209;28;20058;-59
2023/11/25 10:52:35;;;;;;;5.03;0.90;;;;;;;19.29;42.97;101032.63;5058393;28;20043;-59
2023/11/25 10:55:02;;;;;;;1.85;0.50;;;;;;;18.97;43.89;101036.41;5080223;28;20127;-59
2023/11/25 10:57:27;;;;;;;4.43;1.20;;;;;;;18.65;43.64;101033.84;5077239;28;20031;-60
2023/11/25 10:59:57;;;;;;;4.85;0.70;;;;;;;18.48;42.94;101023.03;5077463;28;20040;-59
2023/11/25 11:02:41;;;;;;;4.47;0.70;;;;;;;18.32;43.84;101019.50;5077093;28;20040;-59
2023/11/25 11:05:09;;;;;;;3.38;0.63;;;;;;;18.08;44.22;101028.56;5076351;28;20031;-59
2023/11/25 11:07:44;;;;;;;5.32;1.05;;;;;;;17.85;43.97;101020.31;5076852;28;20029;-59
2023/11/25 11:10:11;;;;;;;1.67;0.68;;;;;;;17.66;44.59;101019.81;5077219;28;20036;-59
2023/11/25 11:12:43;;;;;;;3.22;1.25;;;;;;;17.44;44.13;101022.19;5060298;28;20059;-59
2023/11/25 11:15:14;;;;;;;2.95;0.73;;;;;;;17.25;44.00;101011.63;5077174;28;20047;-59
2023/11/25 11:18:17;;;;;;;6.40;0.85;;;;;;;17.10;43.75;101021.44;5095553;28;20107;-59
2023/11/25 11:20:47;;;;;;;3.55;0.82;;;;;;;16.92;43.84;101014.50;5094984;28;20028;-59